createdAt,value
2019-01-27T00:56:56.423Z,4.55
2019-01-27T00:59:29.292Z,4.53
2019-01-27T01:02:05.029Z,4.50
2019-01-27T01:04:38.506Z,4.58
2019-01-27T01:07:15.520Z,4.63
2019-01-27T01:09:55.404Z,4.67
2019-01-27T01:12:28.125Z,4.77
2019-01-27T01:15:04.949Z,4.76
2019-01-27T01:17:41.481Z,4.74
2019-01-27T01:20:24.397Z,4.80
2019-01-27T01:22:58.245Z,4.82
2019-01-27T01:25:32.243Z,4.74
2019-01-27T01:28:10.012Z,4.80
2019-01-27T01:30:48.598Z,4.78
2019-01-27T01:33:25.248Z,4.73
2019-01-27T01:35:59.214Z,4.71
2019-01-27T01:38:36.942Z,4.71
2019-01-27T01:41:09.862Z,4.73
2019-01-27T01:43:47.717Z,4.78
2019-01-27T01:46:23.896Z,4.78
2019-01-27T01:49:01.733Z,4.87
2019-01-27T01:51:35.567Z,4.81
2019-01-27T01:54:16.435Z,4.82
2019-01-27T01:56:52.186Z,4.82
2019-01-27T01:59:33.033Z,4.90
2019-01-27T02:02:08.904Z,4.90
2019-01-27T02:04:43.642Z,4.90
2019-01-27T02:07:18.434Z,4.87
2019-01-27T02:09:51.391Z,4.87
2019-01-27T02:12:29.328Z,4.96
2019-01-27T02:15:04.905Z,5.10
2019-01-27T02:17:38.501Z,5.11
2019-01-27T02:20:14.299Z,5.03
2019-01-27T02:22:49.600Z,4.98
2019-01-27T02:25:25.859Z,4.93
2019-01-27T02:28:00.023Z,4.96
2019-01-27T02:30:34.753Z,5.00
2019-01-27T02:33:07.984Z,4.92
2019-01-27T02:35:41.351Z,4.89
2019-01-27T02:38:14.891Z,4.88
2019-01-27T02:40:48.207Z,4.89
2019-01-27T02:43:21.260Z,4.81
2019-01-27T02:45:53.925Z,4.79
2019-01-27T02:48:29.402Z,4.82
2019-01-27T02:51:02.519Z,4.83
2019-01-27T02:53:35.962Z,4.79
2019-01-27T02:56:08.957Z,4.75
2019-01-27T02:58:42.584Z,4.76
2019-01-27T03:01:16.317Z,4.76
2019-01-27T03:03:50.282Z,4.79
2019-01-27T03:06:34.310Z,4.80
2019-01-27T03:09:15.350Z,4.90
2019-01-27T03:11:50.867Z,4.85
2019-01-27T03:14:25.067Z,4.86
2019-01-27T03:16:58.817Z,4.79
2019-01-27T03:19:32.681Z,4.81
2019-01-27T03:22:05.867Z,4.93
2019-01-27T03:24:38.130Z,4.85
2019-01-27T03:27:11.832Z,4.86
2019-01-27T03:29:45.050Z,4.90
2019-01-27T03:32:19.265Z,4.88
2019-01-27T03:34:52.482Z,4.79
2019-01-27T03:37:25.943Z,4.90
2019-01-27T03:39:58.802Z,4.87
2019-01-27T03:42:34.691Z,4.74
2019-01-27T03:45:10.113Z,4.80
2019-01-27T03:47:47.114Z,4.77
2019-01-27T03:50:25.452Z,4.79
2019-01-27T03:52:57.853Z,4.82
2019-01-27T03:55:34.867Z,4.83
2019-01-27T03:58:08.824Z,4.82
2019-01-27T04:00:45.501Z,4.82
2019-01-27T04:03:25.147Z,4.80
2019-01-27T04:05:57.505Z,4.80
2019-01-27T04:08:30.738Z,4.83
2019-01-27T04:11:03.822Z,4.80
2019-01-27T04:13:37.591Z,4.77
2019-01-27T04:16:10.990Z,4.76
2019-01-27T04:18:44.499Z,4.70
2019-01-27T04:21:18.468Z,4.72
2019-01-27T04:23:55.474Z,4.76
2019-01-27T04:26:28.418Z,4.74
2019-01-27T04:29:02.091Z,4.69
2019-01-27T04:31:34.397Z,4.66
2019-01-27T04:34:06.993Z,4.71
2019-01-27T04:36:44.863Z,4.79
2019-01-27T04:39:18.153Z,4.87
2019-01-27T04:41:51.549Z,4.83
2019-01-27T04:44:26.080Z,4.76
2019-01-27T04:46:59.393Z,4.75
2019-01-27T04:49:34.830Z,4.77
2019-01-27T04:52:07.819Z,4.81
2019-01-27T04:54:40.924Z,4.72
2019-01-27T04:57:13.181Z,4.70
2019-01-27T04:59:51.200Z,4.72
2019-01-27T05:02:28.349Z,4.78
2019-01-27T05:05:04.101Z,4.83
2019-01-27T05:07:40.042Z,4.80
2019-01-27T05:10:19.512Z,4.81
2019-01-27T05:12:55.361Z,4.87
2019-01-27T05:15:30.914Z,4.91
2019-01-27T05:18:04.303Z,4.93
2019-01-27T05:20:37.538Z,5.07
2019-01-27T05:23:10.901Z,4.93
2019-01-27T05:25:45.154Z,4.97
2019-01-27T05:28:18.220Z,5.03
2019-01-27T05:30:53.566Z,5.07
2019-01-27T05:33:28.573Z,5.01
2019-01-27T05:36:05.498Z,5.11
2019-01-27T05:38:42.809Z,4.95
2019-01-27T05:41:37.215Z,4.90
2019-01-27T05:44:10.590Z,4.91
2019-01-27T05:46:45.626Z,4.87
2019-01-27T05:49:20.634Z,4.89
2019-01-27T05:51:55.555Z,4.88
2019-01-27T05:54:29.129Z,4.77
2019-01-27T05:57:06.619Z,4.88
2019-01-27T05:59:46.260Z,4.91
2019-01-27T06:02:16.495Z,4.95
2019-01-27T06:04:56.376Z,4.97
2019-01-27T06:07:28.642Z,5.00
2019-01-27T06:10:04.221Z,4.89
2019-01-27T06:12:45.226Z,4.97
2019-01-27T06:15:19.094Z,5.03
2019-01-27T06:17:52.482Z,5.00
2019-01-27T06:20:26.824Z,4.97
2019-01-27T06:22:59.733Z,5.09
2019-01-27T06:25:32.758Z,5.03
2019-01-27T06:28:06.014Z,5.03
2019-01-27T06:30:40.610Z,4.93
2019-01-27T06:33:35.039Z,4.89
2019-01-27T06:36:11.300Z,4.93
2019-01-27T06:38:49.389Z,4.89
2019-01-27T06:41:28.233Z,4.87
2019-01-27T06:44:07.500Z,4.90
2019-01-27T06:46:57.955Z,4.91
2019-01-27T06:49:32.761Z,4.88
2019-01-27T06:52:10.257Z,4.84
2019-01-27T06:54:45.975Z,4.83
2019-01-27T06:57:21.138Z,4.75
2019-01-27T07:00:02.813Z,4.85
2019-01-27T07:02:44.132Z,4.85
2019-01-27T07:05:36.721Z,4.83
2019-01-27T07:08:30.230Z,4.75
2019-01-27T07:11:20.821Z,4.80
2019-01-27T07:14:29.882Z,4.84
2019-01-27T07:17:25.176Z,4.79
2019-01-27T07:20:19.747Z,4.92
2019-01-27T07:23:25.905Z,4.92
2019-01-27T07:26:19.304Z,4.97
2019-01-27T07:29:07.908Z,4.98
2019-01-27T07:32:15.592Z,4.97
2019-01-27T07:35:08.369Z,4.92
2019-01-27T07:38:05.967Z,4.95
2019-01-27T07:40:47.123Z,4.96
2019-01-27T07:43:38.457Z,5.02
2019-01-27T07:46:30.705Z,4.99
2019-01-27T07:49:17.410Z,5.00
2019-01-27T07:52:15.627Z,5.17
2019-01-27T07:58:33.251Z,5.31
2019-01-27T08:01:26.082Z,5.27
2019-01-27T08:04:23.476Z,5.36
2019-01-27T08:07:15.913Z,5.34
2019-01-27T08:10:16.171Z,5.46
2019-01-27T08:13:05.817Z,5.59
2019-01-27T08:15:57.141Z,5.62
2019-01-27T08:18:44.161Z,5.70
2019-01-27T08:21:27.904Z,5.72
2019-01-27T08:24:14.847Z,5.75
2019-01-27T08:27:08.140Z,5.68
2019-01-27T08:29:51.218Z,5.75
2019-01-27T08:32:54.148Z,5.70
2019-01-27T08:35:54.612Z,5.65
2019-01-27T08:38:49.946Z,5.64
2019-01-27T08:41:51.401Z,5.71
2019-01-27T08:44:58.636Z,5.70
2019-01-27T08:47:31.911Z,5.71
2019-01-27T08:50:08.185Z,5.75
2019-01-27T08:52:47.453Z,5.72
2019-01-27T08:55:19.161Z,5.74
2019-01-27T08:57:54.818Z,5.58
2019-01-27T09:00:56.654Z,5.74
2019-01-27T09:03:36.493Z,5.72
2019-01-27T09:06:27.509Z,5.58
2019-01-27T09:09:29.286Z,5.62
2019-01-27T09:12:32.245Z,5.71
2019-01-27T09:15:24.498Z,5.68
2019-01-27T09:18:16.111Z,5.70
2019-01-27T09:21:15.009Z,5.80
2019-01-27T09:23:57.661Z,5.86
2019-01-27T09:26:40.259Z,5.90
2019-01-27T09:29:28.124Z,5.98
2019-01-27T09:32:19.356Z,5.95
2019-01-27T09:35:23.290Z,5.96
2019-01-27T09:38:25.961Z,5.92
2019-01-27T09:41:28.977Z,5.98
2019-01-27T09:44:35.351Z,6.08
2019-01-27T09:47:33.133Z,6.09
2019-01-27T09:50:34.572Z,6.09
2019-01-27T09:53:43.203Z,6.12
2019-01-27T09:56:28.169Z,6.05
2019-01-27T09:59:12.053Z,6.11
2019-01-27T10:01:57.593Z,6.09
2019-01-27T10:04:51.285Z,6.09
2019-01-27T10:07:44.363Z,6.13
2019-01-27T10:10:36.587Z,6.22
2019-01-27T10:13:35.863Z,6.22
2019-01-27T10:16:43.599Z,6.32
2019-01-27T10:19:23.464Z,6.41
2019-01-27T10:22:18.656Z,6.60
2019-01-27T10:25:16.111Z,6.76
2019-01-27T10:27:58.217Z,6.67
2019-01-27T10:30:42.111Z,6.70
2019-01-27T10:33:28.735Z,6.72
2019-01-27T10:36:21.700Z,6.94
2019-01-27T10:39:12.483Z,7.31
2019-01-27T10:41:53.291Z,7.11
2019-01-27T10:44:41.398Z,7.03
2019-01-27T10:47:32.143Z,6.90
2019-01-27T10:50:18.928Z,6.92
2019-01-27T10:53:14.978Z,6.96
2019-01-27T10:55:59.326Z,6.89
2019-01-27T10:58:56.204Z,6.98
2019-01-27T11:01:47.543Z,6.95
2019-01-27T11:04:46.349Z,6.89
2019-01-27T11:07:47.274Z,6.78
2019-01-27T11:10:38.516Z,6.75
2019-01-27T11:13:46.455Z,6.74
2019-01-27T11:16:54.036Z,6.71
2019-01-27T11:19:37.039Z,6.69
2019-01-27T11:22:38.169Z,6.65
2019-01-27T11:25:39.578Z,6.72
2019-01-27T11:28:25.871Z,6.75
2019-01-27T11:31:21.532Z,6.79
2019-01-27T11:34:03.157Z,6.79
2019-01-27T11:36:49.918Z,6.75
2019-01-27T11:39:42.591Z,6.66
2019-01-27T11:42:33.850Z,6.55
2019-01-27T11:45:24.958Z,6.55
2019-01-27T11:48:16.088Z,6.54
2019-01-27T11:50:54.337Z,6.40
2019-01-27T11:53:29.185Z,6.33
2019-01-27T11:56:03.797Z,6.22
2019-01-27T11:58:37.357Z,6.26
2019-01-27T12:01:12.247Z,6.26
2019-01-27T12:03:46.541Z,6.18
2019-01-27T12:06:20.388Z,6.20
2019-01-27T12:08:53.865Z,6.22
2019-01-27T12:11:27.124Z,6.19
2019-01-27T12:14:00.575Z,6.16
2019-01-27T12:16:34.050Z,6.11
2019-01-27T12:19:07.775Z,6.06
2019-01-27T12:21:41.367Z,6.11
2019-01-27T12:24:15.782Z,6.16
2019-01-27T12:26:48.503Z,6.22
2019-01-27T12:29:21.116Z,6.15
2019-01-27T12:31:54.101Z,6.15
2019-01-27T12:34:27.632Z,6.10
2019-01-27T12:37:03.051Z,6.19
2019-01-27T12:39:36.085Z,6.22
2019-01-27T12:42:09.184Z,6.30
2019-01-27T12:44:42.134Z,6.11
2019-01-27T12:47:15.683Z,6.19
2019-01-27T12:49:48.718Z,6.15
2019-01-27T12:52:23.588Z,6.09
2019-01-27T12:54:56.821Z,6.15
2019-01-27T12:57:30.754Z,6.17
2019-01-27T13:00:13.084Z,6.19
2019-01-27T13:02:48.837Z,6.18
2019-01-27T13:05:26.138Z,6.14
2019-01-27T13:07:59.467Z,6.13
2019-01-27T13:10:37.315Z,6.19
2019-01-27T13:13:12.182Z,6.19
2019-01-27T13:15:49.488Z,6.18
2019-01-27T13:18:21.777Z,6.22
2019-01-27T13:20:56.986Z,6.20
2019-01-27T13:23:29.712Z,6.11
2019-01-27T13:26:03.907Z,6.13
2019-01-27T13:28:36.788Z,6.15
2019-01-27T13:31:10.307Z,6.13
2019-01-27T13:33:43.431Z,6.16
2019-01-27T13:36:16.162Z,6.17
2019-01-27T13:38:51.111Z,6.13
2019-01-27T13:41:25.020Z,6.13
2019-01-27T13:44:00.183Z,5.98
2019-01-27T13:46:33.703Z,6.02
2019-01-27T13:49:06.919Z,5.90
2019-01-27T13:51:40.018Z,5.94
2019-01-27T13:54:12.765Z,5.90
2019-01-27T13:56:45.999Z,5.92
2019-01-27T13:59:19.425Z,5.79
2019-01-27T14:01:52.514Z,5.73
2019-01-27T14:04:27.366Z,5.66
2019-01-27T14:07:00.582Z,5.61
2019-01-27T14:09:36.700Z,5.65
2019-01-27T14:12:09.020Z,5.60
2019-01-27T14:14:44.007Z,5.55
2019-01-27T14:17:16.933Z,5.51
2019-01-27T14:19:50.254Z,5.45
2019-01-27T14:22:23.256Z,5.45
2019-01-27T14:24:56.984Z,5.45
2019-01-27T14:27:30.642Z,5.51
2019-01-27T14:30:09.260Z,5.50
2019-01-27T14:32:42.948Z,5.44
2019-01-27T14:35:16.113Z,5.41
2019-01-27T14:37:48.784Z,5.45
2019-01-27T14:40:26.152Z,5.42
2019-01-27T14:43:00.898Z,5.40
2019-01-27T14:45:36.332Z,5.32
2019-01-27T14:48:09.578Z,5.32
2019-01-27T14:50:45.370Z,5.34
2019-01-27T14:53:19.094Z,5.29
2019-01-27T14:55:57.642Z,5.24
2019-01-27T14:58:29.377Z,5.23
2019-01-27T15:01:07.175Z,5.22
2019-01-27T15:03:40.700Z,5.21
2019-01-27T15:06:16.755Z,5.21
2019-01-27T15:08:49.878Z,5.28
2019-01-27T15:11:25.596Z,5.30
2019-01-27T15:13:58.222Z,5.20
2019-01-27T15:16:32.473Z,5.21
2019-01-27T15:19:05.342Z,5.21
2019-01-27T15:21:39.249Z,5.26
2019-01-27T15:24:12.621Z,5.23
2019-01-27T15:26:46.211Z,5.21
2019-01-27T15:29:19.574Z,5.29
2019-01-27T15:31:52.948Z,5.25
2019-01-27T15:34:28.827Z,5.24
2019-01-27T15:37:05.633Z,5.22
2019-01-27T15:39:38.813Z,5.12
2019-01-27T15:42:15.839Z,5.05
2019-01-27T15:44:48.882Z,5.03
2019-01-27T15:47:22.461Z,5.03
2019-01-27T15:49:55.996Z,5.03
2019-01-27T15:52:34.497Z,4.99
2019-01-27T15:55:12.693Z,5.02
2019-01-27T15:57:47.794Z,4.98
2019-01-27T16:00:25.732Z,5.03
2019-01-27T16:02:59.751Z,5.02
2019-01-27T16:05:33.981Z,4.95
2019-01-27T16:08:08.826Z,4.95
2019-01-27T16:10:42.516Z,4.95
2019-01-27T16:13:15.763Z,5.00
2019-01-27T16:15:56.434Z,5.00
2019-01-27T16:18:30.937Z,4.96
2019-01-27T16:21:03.581Z,5.03
2019-01-27T16:23:51.003Z,5.11
2019-01-27T16:26:24.151Z,5.05
2019-01-27T16:28:56.872Z,5.07
2019-01-27T16:31:42.637Z,5.11
2019-01-27T16:34:28.890Z,5.15
2019-01-27T16:37:02.364Z,5.12
2019-01-27T16:39:36.764Z,5.09
2019-01-27T16:42:09.645Z,5.17
2019-01-27T16:44:43.298Z,5.14
2019-01-27T16:47:18.943Z,5.20
2019-01-27T16:49:51.264Z,5.08
2019-01-27T16:52:24.911Z,5.13
2019-01-27T16:54:58.118Z,5.05
2019-01-27T16:57:31.304Z,5.14
2019-01-27T17:00:07.503Z,5.19
2019-01-27T17:02:40.607Z,5.05
2019-01-27T17:05:15.425Z,5.06
2019-01-27T17:07:48.965Z,5.07
2019-01-27T17:10:24.252Z,5.06
2019-01-27T17:12:57.469Z,5.03
2019-01-27T17:15:31.170Z,5.02
2019-01-27T17:18:04.036Z,5.14
2019-01-27T17:20:37.681Z,5.12
2019-01-27T17:23:10.924Z,5.07
2019-01-27T17:25:45.711Z,5.08
2019-01-27T17:28:19.553Z,5.00
2019-01-27T17:30:52.918Z,4.99
2019-01-27T17:33:26.983Z,4.98
2019-01-27T17:36:00.477Z,4.72
2019-01-27T17:38:40.399Z,4.55
2019-01-27T17:41:16.423Z,4.50
2019-01-27T17:43:50.123Z,4.46
2019-01-27T17:46:23.651Z,4.30
2019-01-27T17:48:56.197Z,4.21
2019-01-27T17:51:30.520Z,4.18
2019-01-27T17:54:06.216Z,4.13
2019-01-27T17:56:38.962Z,4.21
2019-01-27T17:59:37.246Z,4.16
2019-01-27T18:02:28.040Z,4.14
2019-01-27T18:05:23.603Z,4.09
2019-01-27T18:08:10.006Z,4.19
2019-01-27T18:11:08.147Z,4.07
2019-01-27T18:14:00.751Z,4.09
2019-01-27T18:16:34.652Z,4.08
2019-01-27T18:19:07.343Z,4.08
2019-01-27T18:21:40.312Z,4.11
2019-01-27T18:24:13.274Z,4.10
2019-01-27T18:26:49.062Z,4.09
2019-01-27T18:29:21.753Z,4.05
2019-01-27T18:31:56.388Z,4.10
2019-01-27T18:34:29.900Z,4.05
2019-01-27T18:37:05.681Z,3.96
2019-01-27T18:39:38.798Z,3.96
2019-01-27T18:42:11.489Z,3.95
2019-01-27T18:44:45.100Z,3.92
2019-01-27T18:47:18.366Z,3.94
2019-01-27T18:49:52.449Z,3.95
2019-01-27T18:52:31.279Z,3.96
2019-01-27T18:55:28.435Z,3.88
2019-01-27T18:58:20.406Z,3.91
2019-01-27T19:01:17.168Z,3.92
2019-01-27T19:03:59.696Z,3.89
2019-01-27T19:06:45.236Z,3.97
2019-01-27T19:09:28.045Z,3.88
2019-01-27T19:12:11.541Z,3.92
2019-01-27T19:15:17.799Z,3.99
2019-01-27T19:18:21.997Z,3.92
2019-01-27T19:21:13.745Z,3.96
2019-01-27T19:24:07.066Z,3.90
2019-01-27T19:26:58.534Z,3.94
2019-01-27T19:29:42.681Z,3.92
2019-01-27T19:32:23.364Z,3.94
2019-01-27T19:35:05.064Z,3.93
2019-01-27T19:37:59.565Z,3.84
2019-01-27T19:40:39.156Z,3.83
2019-01-27T19:43:26.647Z,3.86
2019-01-27T19:46:25.057Z,3.80
2019-01-27T19:49:17.582Z,3.80
2019-01-27T19:52:10.304Z,3.80
2019-01-27T19:55:22.223Z,3.79
2019-01-27T19:58:09.476Z,3.76
2019-01-27T20:01:10.370Z,3.78
2019-01-27T20:04:06.053Z,3.75
2019-01-27T20:06:57.356Z,3.75
2019-01-27T20:09:56.156Z,3.77
2019-01-27T20:12:51.584Z,3.71
2019-01-27T20:15:46.998Z,3.77
2019-01-27T20:18:45.537Z,3.79
2019-01-27T20:21:39.437Z,3.76
2019-01-27T20:24:35.431Z,3.69
2019-01-27T20:27:33.682Z,3.66
2019-01-27T20:30:26.084Z,3.62
2019-01-27T20:33:24.603Z,3.56
2019-01-27T20:36:13.694Z,3.49
2019-01-27T20:39:07.400Z,3.33
2019-01-27T20:42:12.234Z,3.27
2019-01-27T20:44:57.435Z,3.31
2019-01-27T20:47:47.656Z,3.30
2019-01-27T20:50:39.540Z,3.17
2019-01-27T20:53:27.987Z,3.26
2019-01-27T20:56:26.695Z,3.37
2019-01-27T20:59:07.970Z,3.38
2019-01-27T21:02:07.132Z,3.37
2019-01-27T21:04:59.716Z,3.41
2019-01-27T21:07:55.342Z,3.33
2019-01-27T21:10:46.830Z,3.39
2019-01-27T21:13:58.312Z,3.42
2019-01-27T21:16:48.334Z,3.37
2019-01-27T21:19:34.425Z,3.33
2019-01-27T21:22:07.670Z,3.30
2019-01-27T21:24:41.304Z,3.27
2019-01-27T21:27:16.739Z,3.23
2019-01-27T21:29:50.340Z,3.12
2019-01-27T21:32:26.178Z,3.13
2019-01-27T21:35:00.225Z,3.09
2019-01-27T21:37:33.390Z,3.08
2019-01-27T21:40:09.794Z,3.12
2019-01-27T21:42:47.278Z,3.07
2019-01-27T21:45:20.071Z,3.13
2019-01-27T21:47:53.369Z,3.09
2019-01-27T21:50:27.615Z,3.09
2019-01-27T21:53:04.957Z,3.11
2019-01-27T21:55:38.962Z,3.08
2019-01-27T21:58:12.401Z,3.14
2019-01-27T22:00:47.222Z,3.22
2019-01-27T22:03:21.408Z,3.15
2019-01-27T22:05:57.176Z,3.13
2019-01-27T22:08:30.220Z,3.16
2019-01-27T22:11:03.022Z,3.15
2019-01-27T22:13:42.588Z,3.11
2019-01-27T22:16:17.483Z,3.07
2019-01-27T22:18:59.483Z,3.07
2019-01-27T22:21:38.502Z,3.09
2019-01-27T22:24:10.330Z,3.06
2019-01-27T22:26:43.106Z,3.04
2019-01-27T22:29:16.033Z,3.08
2019-01-27T22:31:49.944Z,3.01
2019-01-27T22:34:23.703Z,3.03
2019-01-27T22:36:57.341Z,2.95
2019-01-27T22:39:31.029Z,2.93
2019-01-27T22:42:06.017Z,2.91
2019-01-27T22:44:40.497Z,2.90
2019-01-27T22:47:17.473Z,2.78
2019-01-27T22:49:50.708Z,2.83
2019-01-27T22:52:23.962Z,2.83
2019-01-27T22:54:56.912Z,2.84
2019-01-27T22:57:30.124Z,2.85
2019-01-27T23:00:12.896Z,2.84
2019-01-27T23:02:48.123Z,2.89
2019-01-27T23:05:20.299Z,2.83
2019-01-27T23:07:54.944Z,2.79
2019-01-27T23:10:30.343Z,2.78
2019-01-27T23:13:06.739Z,2.89
2019-01-27T23:15:40.088Z,2.89
2019-01-27T23:18:14.188Z,2.94
2019-01-27T23:20:47.764Z,2.97
2019-01-27T23:23:20.952Z,2.94
2019-01-27T23:25:53.591Z,2.95
2019-01-27T23:28:26.937Z,2.96
2019-01-27T23:30:59.805Z,2.97
2019-01-27T23:33:33.299Z,3.03
2019-01-27T23:36:10.017Z,2.98
2019-01-27T23:38:45.405Z,3.09
2019-01-27T23:41:18.637Z,3.02
2019-01-27T23:43:53.276Z,3.06
2019-01-27T23:46:28.926Z,3.03
2019-01-27T23:49:03.536Z,3.00
